sensor_id;sensor_type;location;lat;lon;timestamp;P1;durP1;ratioP1;P2;durP2;ratioP2
24729;SDS011;12832;52.392;13.066;2023-11-19T00:02:19;0.70;;;0.70;;
24729;SDS011;12832;52.392;13.066;2023-11-19T00:04:46;0.60;;;0.60;;
24729;SDS011;12832;52.392;13.066;2023-11-19T00:07:13;0.50;;;0.50;;
24729;SDS011;12832;52.392;13.066;2023-11-19T00:09:40;0.63;;;0.63;;
24729;SDS011;12832;52.392;13.066;2023-11-19T00:12:06;0.60;;;0.60;;
24729;SDS011;12832;52.392;13.066;2023-11-19T00:14:33;0.50;;;0.50;;
24729;SDS011;12832;52.392;13.066;2023-11-19T00:17:00;0.57;;;0.57;;
24729;SDS011;12832;52.392;13.066;2023-11-19T00:19:27;0.52;;;0.52;;
24729;SDS011;12832;52.392;13.066;2023-11-19T00:21:54;0.52;;;0.50;;
24729;SDS011;12832;52.392;13.066;2023-11-19T00:24:20;0.60;;;0.60;;
24729;SDS011;12832;52.392;13.066;2023-11-19T00:26:47;0.50;;;0.50;;
24729;SDS011;12832;52.392;13.066;2023-11-19T00:29:15;0.55;;;0.55;;
24729;SDS011;12832;52.392;13.066;2023-11-19T00:31:41;0.50;;;0.50;;
24729;SDS011;12832;52.392;13.066;2023-11-19T00:34:08;0.60;;;0.60;;
24729;SDS011;12832;52.392;13.066;2023-11-19T00:36:36;0.57;;;0.57;;
24729;SDS011;12832;52.392;13.066;2023-11-19T00:39:03;0.60;;;0.60;;
24729;SDS011;12832;52.392;13.066;2023-11-19T00:41:31;0.70;;;0.70;;
24729;SDS011;12832;52.392;13.066;2023-11-19T00:43:57;0.68;;;0.68;;
24729;SDS011;12832;52.392;13.066;2023-11-19T00:46:24;0.70;;;0.70;;
24729;SDS011;12832;52.392;13.066;2023-11-19T00:48:51;0.70;;;0.50;;
24729;SDS011;12832;52.392;13.066;2023-11-19T00:51:17;0.68;;;0.68;;
24729;SDS011;12832;52.392;13.066;2023-11-19T00:53:44;0.60;;;0.60;;
24729;SDS011;12832;52.392;13.066;2023-11-19T00:56:11;0.60;;;0.60;;
24729;SDS011;12832;52.392;13.066;2023-11-19T00:58:37;0.70;;;0.70;;
24729;SDS011;12832;52.392;13.066;2023-11-19T01:01:04;0.70;;;0.70;;
24729;SDS011;12832;52.392;13.066;2023-11-19T01:03:31;0.80;;;0.80;;
24729;SDS011;12832;52.392;13.066;2023-11-19T01:05:58;0.70;;;0.70;;
24729;SDS011;12832;52.392;13.066;2023-11-19T01:08:26;0.57;;;0.52;;
24729;SDS011;12832;52.392;13.066;2023-11-19T01:10:53;0.60;;;0.60;;
24729;SDS011;12832;52.392;13.066;2023-11-19T01:13:20;0.63;;;0.63;;
24729;SDS011;12832;52.392;13.066;2023-11-19T01:15:46;0.70;;;0.60;;
24729;SDS011;12832;52.392;13.066;2023-11-19T01:18:13;0.60;;;0.60;;
24729;SDS011;12832;52.392;13.066;2023-11-19T01:20:40;0.80;;;0.80;;
24729;SDS011;12832;52.392;13.066;2023-11-19T01:23:06;0.60;;;0.60;;
24729;SDS011;12832;52.392;13.066;2023-11-19T01:25:33;1.00;;;0.75;;
24729;SDS011;12832;52.392;13.066;2023-11-19T01:28:01;0.70;;;0.70;;
24729;SDS011;12832;52.392;13.066;2023-11-19T01:30:28;0.57;;;0.57;;
24729;SDS011;12832;52.392;13.066;2023-11-19T01:32:55;0.60;;;0.60;;
24729;SDS011;12832;52.392;13.066;2023-11-19T01:35:21;0.60;;;0.60;;
24729;SDS011;12832;52.392;13.066;2023-11-19T01:37:52;0.60;;;0.60;;
24729;SDS011;12832;52.392;13.066;2023-11-19T01:40:22;0.85;;;0.65;;
24729;SDS011;12832;52.392;13.066;2023-11-19T01:42:49;0.60;;;0.60;;
24729;SDS011;12832;52.392;13.066;2023-11-19T01:45:21;0.68;;;0.68;;
24729;SDS011;12832;52.392;13.066;2023-11-19T01:47:48;0.70;;;0.70;;
24729;SDS011;12832;52.392;13.066;2023-11-19T01:50:15;0.70;;;0.63;;
24729;SDS011;12832;52.392;13.066;2023-11-19T01:52:41;0.80;;;0.75;;
24729;SDS011;12832;52.392;13.066;2023-11-19T01:55:08;0.60;;;0.57;;
24729;SDS011;12832;52.392;13.066;2023-11-19T01:57:36;0.65;;;0.65;;
24729;SDS011;12832;52.392;13.066;2023-11-19T02:00:04;0.68;;;0.65;;
24729;SDS011;12832;52.392;13.066;2023-11-19T02:02:31;0.65;;;0.60;;
24729;SDS011;12832;52.392;13.066;2023-11-19T02:04:58;0.82;;;0.82;;
24729;SDS011;12832;52.392;13.066;2023-11-19T02:07:25;0.70;;;0.70;;
24729;SDS011;12832;52.392;13.066;2023-11-19T02:09:52;0.70;;;0.70;;
24729;SDS011;12832;52.392;13.066;2023-11-19T02:12:19;0.95;;;0.90;;
24729;SDS011;12832;52.392;13.066;2023-11-19T02:14:46;0.77;;;0.77;;
24729;SDS011;12832;52.392;13.066;2023-11-19T02:17:28;0.68;;;0.68;;
24729;SDS011;12832;52.392;13.066;2023-11-19T02:19:57;0.90;;;0.73;;
24729;SDS011;12832;52.392;13.066;2023-11-19T02:22:24;0.70;;;0.70;;
24729;SDS011;12832;52.392;13.066;2023-11-19T02:24:55;0.60;;;0.60;;
24729;SDS011;12832;52.392;13.066;2023-11-19T02:29:51;0.70;;;0.70;;
24729;SDS011;12832;52.392;13.066;2023-11-19T02:32:19;0.90;;;0.85;;
24729;SDS011;12832;52.392;13.066;2023-11-19T02:34:46;0.82;;;0.82;;
24729;SDS011;12832;52.392;13.066;2023-11-19T02:37:12;0.80;;;0.80;;
24729;SDS011;12832;52.392;13.066;2023-11-19T02:39:40;0.80;;;0.80;;
24729;SDS011;12832;52.392;13.066;2023-11-19T02:42:07;0.73;;;0.60;;
24729;SDS011;12832;52.392;13.066;2023-11-19T02:44:34;0.55;;;0.55;;
24729;SDS011;12832;52.392;13.066;2023-11-19T02:47:00;0.80;;;0.80;;
24729;SDS011;12832;52.392;13.066;2023-11-19T02:49:28;0.68;;;0.68;;
24729;SDS011;12832;52.392;13.066;2023-11-19T02:51:55;0.80;;;0.73;;
24729;SDS011;12832;52.392;13.066;2023-11-19T02:54:22;0.60;;;0.60;;
24729;SDS011;12832;52.392;13.066;2023-11-19T02:56:52;0.90;;;0.90;;
24729;SDS011;12832;52.392;13.066;2023-11-19T02:59:25;0.70;;;0.60;;
24729;SDS011;12832;52.392;13.066;2023-11-19T03:02:07;0.68;;;0.68;;
24729;SDS011;12832;52.392;13.066;2023-11-19T03:04:37;0.90;;;0.88;;
24729;SDS011;12832;52.392;13.066;2023-11-19T03:07:05;0.80;;;0.80;;
24729;SDS011;12832;52.392;13.066;2023-11-19T03:09:35;1.15;;;0.80;;
24729;SDS011;12832;52.392;13.066;2023-11-19T03:12:02;0.70;;;0.70;;
24729;SDS011;12832;52.392;13.066;2023-11-19T03:14:35;0.65;;;0.65;;
24729;SDS011;12832;52.392;13.066;2023-11-19T03:17:01;0.60;;;0.60;;
24729;SDS011;12832;52.392;13.066;2023-11-19T03:19:29;0.52;;;0.52;;
24729;SDS011;12832;52.392;13.066;2023-11-19T03:21:55;0.57;;;0.50;;
24729;SDS011;12832;52.392;13.066;2023-11-19T03:24:22;0.60;;;0.60;;
24729;SDS011;12832;52.392;13.066;2023-11-19T03:26:50;0.57;;;0.57;;
24729;SDS011;12832;52.392;13.066;2023-11-19T03:29:16;0.60;;;0.60;;
24729;SDS011;12832;52.392;13.066;2023-11-19T03:31:43;0.52;;;0.52;;
24729;SDS011;12832;52.392;13.066;2023-11-19T03:34:10;0.43;;;0.43;;
24729;SDS011;12832;52.392;13.066;2023-11-19T03:36:37;0.43;;;0.43;;
24729;SDS011;12832;52.392;13.066;2023-11-19T03:39:05;0.68;;;0.57;;
24729;SDS011;12832;52.392;13.066;2023-11-19T03:41:32;0.50;;;0.50;;
24729;SDS011;12832;52.392;13.066;2023-11-19T03:44:01;0.40;;;0.40;;
24729;SDS011;12832;52.392;13.066;2023-11-19T03:46:28;0.60;;;0.60;;
24729;SDS011;12832;52.392;13.066;2023-11-19T03:48:55;0.40;;;0.40;;
24729;SDS011;12832;52.392;13.066;2023-11-19T03:51:22;0.30;;;0.30;;
24729;SDS011;12832;52.392;13.066;2023-11-19T03:53:49;0.30;;;0.30;;
24729;SDS011;12832;52.392;13.066;2023-11-19T03:56:16;0.50;;;0.50;;
24729;SDS011;12832;52.392;13.066;2023-11-19T03:58:42;0.40;;;0.30;;
24729;SDS011;12832;52.392;13.066;2023-11-19T04:01:13;0.50;;;0.50;;
24729;SDS011;12832;52.392;13.066;2023-11-19T04:03:39;0.50;;;0.50;;
24729;SDS011;12832;52.392;13.066;2023-11-19T04:06:16;0.30;;;0.30;;
24729;SDS011;12832;52.392;13.066;2023-11-19T04:08:43;0.47;;;0.47;;
24729;SDS011;12832;52.392;13.066;2023-11-19T04:11:10;0.38;;;0.20;;
24729;SDS011;12832;52.392;13.066;2023-11-19T04:13:37;0.35;;;0.35;;
24729;SDS011;12832;52.392;13.066;2023-11-19T04:16:03;0.40;;;0.40;;
24729;SDS011;12832;52.392;13.066;2023-11-19T04:18:30;0.35;;;0.35;;
24729;SDS011;12832;52.392;13.066;2023-11-19T04:20:57;0.30;;;0.30;;
24729;SDS011;12832;52.392;13.066;2023-11-19T04:23:24;0.40;;;0.40;;
24729;SDS011;12832;52.392;13.066;2023-11-19T04:25:51;0.38;;;0.38;;
24729;SDS011;12832;52.392;13.066;2023-11-19T04:28:17;0.30;;;0.30;;
24729;SDS011;12832;52.392;13.066;2023-11-19T04:30:44;0.40;;;0.40;;
24729;SDS011;12832;52.392;13.066;2023-11-19T04:33:11;0.30;;;0.30;;
24729;SDS011;12832;52.392;13.066;2023-11-19T04:35:37;0.10;;;0.10;;
24729;SDS011;12832;52.392;13.066;2023-11-19T04:38:04;0.35;;;0.35;;
24729;SDS011;12832;52.392;13.066;2023-11-19T04:40:31;0.30;;;0.30;;
24729;SDS011;12832;52.392;13.066;2023-11-19T04:42:59;0.28;;;0.28;;
24729;SDS011;12832;52.392;13.066;2023-11-19T04:45:26;0.38;;;0.32;;
24729;SDS011;12832;52.392;13.066;2023-11-19T04:47:52;0.30;;;0.30;;
24729;SDS011;12832;52.392;13.066;2023-11-19T04:50:19;0.30;;;0.30;;
24729;SDS011;12832;52.392;13.066;2023-11-19T04:52:45;0.40;;;0.40;;
24729;SDS011;12832;52.392;13.066;2023-11-19T04:55:12;0.30;;;0.30;;
24729;SDS011;12832;52.392;13.066;2023-11-19T04:57:40;0.30;;;0.30;;
24729;SDS011;12832;52.392;13.066;2023-11-19T05:00:06;0.28;;;0.28;;
24729;SDS011;12832;52.392;13.066;2023-11-19T05:02:42;0.20;;;0.20;;
24729;SDS011;12832;52.392;13.066;2023-11-19T05:05:09;0.32;;;0.30;;
24729;SDS011;12832;52.392;13.066;2023-11-19T05:07:36;0.20;;;0.20;;
24729;SDS011;12832;52.392;13.066;2023-11-19T05:10:03;0.30;;;0.30;;
24729;SDS011;12832;52.392;13.066;2023-11-19T05:12:31;0.30;;;0.30;;
24729;SDS011;12832;52.392;13.066;2023-11-19T05:14:58;0.40;;;0.40;;
24729;SDS011;12832;52.392;13.066;2023-11-19T05:17:24;0.20;;;0.20;;
24729;SDS011;12832;52.392;13.066;2023-11-19T05:19:51;0.20;;;0.20;;
24729;SDS011;12832;52.392;13.066;2023-11-19T05:22:18;0.30;;;0.30;;
24729;SDS011;12832;52.392;13.066;2023-11-19T05:24:46;0.40;;;0.40;;
24729;SDS011;12832;52.392;13.066;2023-11-19T05:27:14;0.20;;;0.20;;
24729;SDS011;12832;52.392;13.066;2023-11-19T05:29:40;0.30;;;0.30;;
24729;SDS011;12832;52.392;13.066;2023-11-19T05:32:08;0.30;;;0.30;;
24729;SDS011;12832;52.392;13.066;2023-11-19T05:34:35;0.30;;;0.30;;
24729;SDS011;12832;52.392;13.066;2023-11-19T05:37:01;0.20;;;0.20;;
24729;SDS011;12832;52.392;13.066;2023-11-19T05:39:28;0.52;;;0.50;;
24729;SDS011;12832;52.392;13.066;2023-11-19T05:41:55;0.20;;;0.20;;
24729;SDS011;12832;52.392;13.066;2023-11-19T05:44:21;0.20;;;0.20;;
24729;SDS011;12832;52.392;13.066;2023-11-19T05:46:48;0.30;;;0.30;;
24729;SDS011;12832;52.392;13.066;2023-11-19T05:49:15;0.35;;;0.35;;
24729;SDS011;12832;52.392;13.066;2023-11-19T05:51:41;0.30;;;0.30;;
24729;SDS011;12832;52.392;13.066;2023-11-19T05:54:08;0.20;;;0.20;;
24729;SDS011;12832;52.392;13.066;2023-11-19T05:56:36;0.20;;;0.20;;
24729;SDS011;12832;52.392;13.066;2023-11-19T05:59:03;0.20;;;0.20;;
24729;SDS011;12832;52.392;13.066;2023-11-19T06:01:35;0.20;;;0.15;;
24729;SDS011;12832;52.392;13.066;2023-11-19T06:04:02;0.20;;;0.20;;
24729;SDS011;12832;52.392;13.066;2023-11-19T06:06:30;0.20;;;0.20;;
24729;SDS011;12832;52.392;13.066;2023-11-19T06:08:56;0.20;;;0.20;;
24729;SDS011;12832;52.392;13.066;2023-11-19T06:11:23;0.20;;;0.20;;
24729;SDS011;12832;52.392;13.066;2023-11-19T06:13:52;0.20;;;0.20;;
24729;SDS011;12832;52.392;13.066;2023-11-19T06:16:20;0.20;;;0.20;;
24729;SDS011;12832;52.392;13.066;2023-11-19T06:18:47;0.20;;;0.20;;
24729;SDS011;12832;52.392;13.066;2023-11-19T06:21:13;0.20;;;0.20;;
24729;SDS011;12832;52.392;13.066;2023-11-19T06:23:40;0.35;;;0.30;;
24729;SDS011;12832;52.392;13.066;2023-11-19T06:26:07;0.20;;;0.20;;
24729;SDS011;12832;52.392;13.066;2023-11-19T06:28:34;0.20;;;0.20;;
24729;SDS011;12832;52.392;13.066;2023-11-19T06:31:03;0.20;;;0.20;;
24729;SDS011;12832;52.392;13.066;2023-11-19T06:33:29;0.20;;;0.20;;
24729;SDS011;12832;52.392;13.066;2023-11-19T06:35:56;0.13;;;0.13;;
24729;SDS011;12832;52.392;13.066;2023-11-19T06:38:23;0.22;;;0.20;;
24729;SDS011;12832;52.392;13.066;2023-11-19T06:40:49;0.30;;;0.30;;
24729;SDS011;12832;52.392;13.066;2023-11-19T06:43:20;0.20;;;0.20;;
24729;SDS011;12832;52.392;13.066;2023-11-19T06:45:47;0.15;;;0.15;;
24729;SDS011;12832;52.392;13.066;2023-11-19T06:48:14;0.13;;;0.13;;
24729;SDS011;12832;52.392;13.066;2023-11-19T06:50:40;0.20;;;0.13;;
24729;SDS011;12832;52.392;13.066;2023-11-19T06:53:07;0.30;;;0.30;;
24729;SDS011;12832;52.392;13.066;2023-11-19T06:55:35;0.20;;;0.20;;
24729;SDS011;12832;52.392;13.066;2023-11-19T06:58:02;0.20;;;0.20;;
24729;SDS011;12832;52.392;13.066;2023-11-19T07:00:29;0.17;;;0.17;;
24729;SDS011;12832;52.392;13.066;2023-11-19T07:02:58;0.20;;;0.20;;
24729;SDS011;12832;52.392;13.066;2023-11-19T07:05:25;0.30;;;0.20;;
24729;SDS011;12832;52.392;13.066;2023-11-19T07:07:52;0.22;;;0.20;;
24729;SDS011;12832;52.392;13.066;2023-11-19T07:10:19;0.30;;;0.30;;
24729;SDS011;12832;52.392;13.066;2023-11-19T07:12:46;0.30;;;0.30;;
24729;SDS011;12832;52.392;13.066;2023-11-19T07:15:13;0.28;;;0.28;;
24729;SDS011;12832;52.392;13.066;2023-11-19T07:17:40;0.20;;;0.20;;
24729;SDS011;12832;52.392;13.066;2023-11-19T07:20:07;0.20;;;0.20;;
24729;SDS011;12832;52.392;13.066;2023-11-19T07:22:33;0.20;;;0.20;;
24729;SDS011;12832;52.392;13.066;2023-11-19T07:25:00;0.20;;;0.20;;
24729;SDS011;12832;52.392;13.066;2023-11-19T07:27:27;0.30;;;0.30;;
24729;SDS011;12832;52.392;13.066;2023-11-19T07:29:53;0.20;;;0.20;;
24729;SDS011;12832;52.392;13.066;2023-11-19T07:32:20;0.20;;;0.20;;
24729;SDS011;12832;52.392;13.066;2023-11-19T07:34:47;0.20;;;0.20;;
24729;SDS011;12832;52.392;13.066;2023-11-19T07:37:14;0.32;;;0.32;;
24729;SDS011;12832;52.392;13.066;2023-11-19T07:39:42;0.32;;;0.32;;
24729;SDS011;12832;52.392;13.066;2023-11-19T07:42:09;0.32;;;0.22;;
24729;SDS011;12832;52.392;13.066;2023-11-19T07:44:36;0.47;;;0.43;;
24729;SDS011;12832;52.392;13.066;2023-11-19T07:47:02;0.20;;;0.20;;
24729;SDS011;12832;52.392;13.066;2023-11-19T07:49:29;0.43;;;0.30;;
24729;SDS011;12832;52.392;13.066;2023-11-19T07:51:56;0.20;;;0.20;;
24729;SDS011;12832;52.392;13.066;2023-11-19T07:54:23;0.40;;;0.30;;
24729;SDS011;12832;52.392;13.066;2023-11-19T07:56:49;0.30;;;0.30;;
24729;SDS011;12832;52.392;13.066;2023-11-19T07:59:16;0.28;;;0.28;;
24729;SDS011;12832;52.392;13.066;2023-11-19T08:01:43;0.40;;;0.40;;
24729;SDS011;12832;52.392;13.066;2023-11-19T08:04:09;0.30;;;0.30;;
24729;SDS011;12832;52.392;13.066;2023-11-19T08:06:37;0.28;;;0.20;;
24729;SDS011;12832;52.392;13.066;2023-11-19T08:09:03;0.40;;;0.40;;
24729;SDS011;12832;52.392;13.066;2023-11-19T08:11:31;0.30;;;0.30;;
24729;SDS011;12832;52.392;13.066;2023-11-19T08:13:57;0.47;;;0.32;;
24729;SDS011;12832;52.392;13.066;2023-11-19T08:16:24;0.40;;;0.40;;
24729;SDS011;12832;52.392;13.066;2023-11-19T08:18:50;0.28;;;0.28;;
24729;SDS011;12832;52.392;13.066;2023-11-19T08:21:17;0.28;;;0.28;;
24729;SDS011;12832;52.392;13.066;2023-11-19T08:23:44;0.30;;;0.30;;
24729;SDS011;12832;52.392;13.066;2023-11-19T08:26:10;0.30;;;0.30;;
24729;SDS011;12832;52.392;13.066;2023-11-19T08:28:37;0.40;;;0.30;;
24729;SDS011;12832;52.392;13.066;2023-11-19T08:31:04;0.20;;;0.20;;
24729;SDS011;12832;52.392;13.066;2023-11-19T08:33:31;0.28;;;0.28;;
24729;SDS011;12832;52.392;13.066;2023-11-19T08:35:57;0.28;;;0.28;;
24729;SDS011;12832;52.392;13.066;2023-11-19T08:38:24;0.20;;;0.20;;
24729;SDS011;12832;52.392;13.066;2023-11-19T08:40:54;0.40;;;0.40;;
24729;SDS011;12832;52.392;13.066;2023-11-19T08:43:28;0.45;;;0.45;;
24729;SDS011;12832;52.392;13.066;2023-11-19T08:45:55;0.40;;;0.38;;
24729;SDS011;12832;52.392;13.066;2023-11-19T08:48:21;0.30;;;0.30;;
24729;SDS011;12832;52.392;13.066;2023-11-19T08:50:48;0.45;;;0.45;;
24729;SDS011;12832;52.392;13.066;2023-11-19T08:53:15;0.30;;;0.30;;
24729;SDS011;12832;52.392;13.066;2023-11-19T08:55:42;0.40;;;0.35;;
24729;SDS011;12832;52.392;13.066;2023-11-19T08:58:08;0.30;;;0.30;;
24729;SDS011;12832;52.392;13.066;2023-11-19T09:00:35;0.40;;;0.40;;
24729;SDS011;12832;52.392;13.066;2023-11-19T09:03:02;0.43;;;0.43;;
24729;SDS011;12832;52.392;13.066;2023-11-19T09:05:29;0.30;;;0.30;;
24729;SDS011;12832;52.392;13.066;2023-11-19T09:07:57;0.50;;;0.45;;
24729;SDS011;12832;52.392;13.066;2023-11-19T09:10:23;0.70;;;0.40;;
24729;SDS011;12832;52.392;13.066;2023-11-19T09:12:50;0.45;;;0.45;;
24729;SDS011;12832;52.392;13.066;2023-11-19T09:15:16;0.40;;;0.40;;
24729;SDS011;12832;52.392;13.066;2023-11-19T09:17:43;0.35;;;0.35;;
24729;SDS011;12832;52.392;13.066;2023-11-19T09:20:11;0.40;;;0.30;;
24729;SDS011;12832;52.392;13.066;2023-11-19T09:22:41;0.30;;;0.30;;
24729;SDS011;12832;52.392;13.066;2023-11-19T09:25:07;0.40;;;0.40;;
24729;SDS011;12832;52.392;13.066;2023-11-19T09:27:34;0.30;;;0.30;;
24729;SDS011;12832;52.392;13.066;2023-11-19T09:30:01;0.30;;;0.30;;
24729;SDS011;12832;52.392;13.066;2023-11-19T09:32:29;0.30;;;0.30;;
24729;SDS011;12832;52.392;13.066;2023-11-19T09:34:56;0.32;;;0.32;;
24729;SDS011;12832;52.392;13.066;2023-11-19T09:37:23;0.30;;;0.25;;
24729;SDS011;12832;52.392;13.066;2023-11-19T09:39:49;0.40;;;0.40;;
24729;SDS011;12832;52.392;13.066;2023-11-19T09:42:16;0.30;;;0.30;;
24729;SDS011;12832;52.392;13.066;2023-11-19T09:44:43;0.40;;;0.40;;
24729;SDS011;12832;52.392;13.066;2023-11-19T09:47:11;0.30;;;0.30;;
24729;SDS011;12832;52.392;13.066;2023-11-19T09:49:38;0.30;;;0.30;;
24729;SDS011;12832;52.392;13.066;2023-11-19T09:52:05;0.50;;;0.50;;
24729;SDS011;12832;52.392;13.066;2023-11-19T09:54:32;0.40;;;0.40;;
24729;SDS011;12832;52.392;13.066;2023-11-19T09:56:58;0.40;;;0.40;;
24729;SDS011;12832;52.392;13.066;2023-11-19T09:59:28;0.40;;;0.40;;
24729;SDS011;12832;52.392;13.066;2023-11-19T10:01:56;0.28;;;0.28;;
24729;SDS011;12832;52.392;13.066;2023-11-19T10:04:23;0.55;;;0.40;;
24729;SDS011;12832;52.392;13.066;2023-11-19T10:06:50;0.30;;;0.30;;
24729;SDS011;12832;52.392;13.066;2023-11-19T10:09:17;0.30;;;0.30;;
24729;SDS011;12832;52.392;13.066;2023-11-19T10:11:44;0.20;;;0.20;;
24729;SDS011;12832;52.392;13.066;2023-11-19T10:14:11;0.30;;;0.30;;
24729;SDS011;12832;52.392;13.066;2023-11-19T10:16:38;0.20;;;0.20;;
24729;SDS011;12832;52.392;13.066;2023-11-19T10:19:05;0.28;;;0.28;;
24729;SDS011;12832;52.392;13.066;2023-11-19T10:21:32;0.20;;;0.20;;
24729;SDS011;12832;52.392;13.066;2023-11-19T10:23:59;0.30;;;0.30;;
24729;SDS011;12832;52.392;13.066;2023-11-19T10:26:27;0.70;;;0.30;;
24729;SDS011;12832;52.392;13.066;2023-11-19T10:28:55;0.30;;;0.30;;
24729;SDS011;12832;52.392;13.066;2023-11-19T10:31:22;0.32;;;0.32;;
24729;SDS011;12832;52.392;13.066;2023-11-19T10:33:52;0.38;;;0.35;;
24729;SDS011;12832;52.392;13.066;2023-11-19T10:36:19;0.30;;;0.30;;
24729;SDS011;12832;52.392;13.066;2023-11-19T10:38:57;0.30;;;0.30;;
24729;SDS011;12832;52.392;13.066;2023-11-19T10:41:27;0.30;;;0.30;;
24729;SDS011;12832;52.392;13.066;2023-11-19T10:43:54;0.30;;;0.30;;
24729;SDS011;12832;52.392;13.066;2023-11-19T10:46:21;0.30;;;0.30;;
24729;SDS011;12832;52.392;13.066;2023-11-19T10:48:49;0.30;;;0.30;;
24729;SDS011;12832;52.392;13.066;2023-11-19T10:51:19;0.30;;;0.30;;
24729;SDS011;12832;52.392;13.066;2023-11-19T10:53:47;0.32;;;0.30;;
24729;SDS011;12832;52.392;13.066;2023-11-19T10:56:16;0.30;;;0.30;;
24729;SDS011;12832;52.392;13.066;2023-11-19T10:58:45;0.30;;;0.30;;
24729;SDS011;12832;52.392;13.066;2023-11-19T11:01:19;0.40;;;0.35;;
24729;SDS011;12832;52.392;13.066;2023-11-19T11:03:49;0.30;;;0.30;;
24729;SDS011;12832;52.392;13.066;2023-11-19T11:06:18;0.30;;;0.30;;
24729;SDS011;12832;52.392;13.066;2023-11-19T11:08:46;0.10;;;0.10;;
24729;SDS011;12832;52.392;13.066;2023-11-19T11:11:13;0.30;;;0.30;;
24729;SDS011;12832;52.392;13.066;2023-11-19T11:13:42;0.20;;;0.20;;
24729;SDS011;12832;52.392;13.066;2023-11-19T11:16:08;0.38;;;0.38;;
24729;SDS011;12832;52.392;13.066;2023-11-19T11:18:36;0.22;;;0.22;;
24729;SDS011;12832;52.392;13.066;2023-11-19T11:21:05;0.30;;;0.30;;
24729;SDS011;12832;52.392;13.066;2023-11-19T11:23:39;0.30;;;0.30;;
24729;SDS011;12832;52.392;13.066;2023-11-19T11:28:42;0.30;;;0.30;;
24729;SDS011;12832;52.392;13.066;2023-11-19T11:33:54;0.40;;;0.30;;
24729;SDS011;12832;52.392;13.066;2023-11-19T11:36:27;0.60;;;0.30;;
24729;SDS011;12832;52.392;13.066;2023-11-19T11:38:53;0.73;;;0.30;;
24729;SDS011;12832;52.392;13.066;2023-11-19T11:41:26;0.30;;;0.30;;
24729;SDS011;12832;52.392;13.066;2023-11-19T11:43:55;0.28;;;0.28;;
24729;SDS011;12832;52.392;13.066;2023-11-19T11:49:00;0.47;;;0.30;;
24729;SDS011;12832;52.392;13.066;2023-11-19T11:59:36;0.20;;;0.20;;
24729;SDS011;12832;52.392;13.066;2023-11-19T12:02:04;0.20;;;0.20;;
24729;SDS011;12832;52.392;13.066;2023-11-19T12:04:31;0.30;;;0.30;;
24729;SDS011;12832;52.392;13.066;2023-11-19T12:07:19;0.30;;;0.30;;
24729;SDS011;12832;52.392;13.066;2023-11-19T12:09:48;0.47;;;0.40;;
24729;SDS011;12832;52.392;13.066;2023-11-19T12:12:18;0.15;;;0.15;;
24729;SDS011;12832;52.392;13.066;2023-11-19T12:17:46;0.22;;;0.20;;
24729;SDS011;12832;52.392;13.066;2023-11-19T12:20:12;0.35;;;0.35;;
24729;SDS011;12832;52.392;13.066;2023-11-19T12:22:39;0.35;;;0.30;;
24729;SDS011;12832;52.392;13.066;2023-11-19T12:25:06;0.25;;;0.22;;
24729;SDS011;12832;52.392;13.066;2023-11-19T12:27:34;0.20;;;0.20;;
24729;SDS011;12832;52.392;13.066;2023-11-19T12:30:04;0.20;;;0.20;;
24729;SDS011;12832;52.392;13.066;2023-11-19T12:33:07;0.25;;;0.25;;
24729;SDS011;12832;52.392;13.066;2023-11-19T12:35:24;0.20;;;0.20;;
24729;SDS011;12832;52.392;13.066;2023-11-19T12:37:52;0.20;;;0.20;;
24729;SDS011;12832;52.392;13.066;2023-11-19T12:40:27;0.28;;;0.28;;
24729;SDS011;12832;52.392;13.066;2023-11-19T12:42:54;0.20;;;0.20;;
24729;SDS011;12832;52.392;13.066;2023-11-19T12:45:22;0.30;;;0.30;;
24729;SDS011;12832;52.392;13.066;2023-11-19T12:47:49;0.35;;;0.35;;
24729;SDS011;12832;52.392;13.066;2023-11-19T12:50:18;0.20;;;0.20;;
24729;SDS011;12832;52.392;13.066;2023-11-19T12:52:57;0.20;;;0.20;;
24729;SDS011;12832;52.392;13.066;2023-11-19T12:55:25;0.25;;;0.25;;
24729;SDS011;12832;52.392;13.066;2023-11-19T12:57:55;0.22;;;0.22;;
24729;SDS011;12832;52.392;13.066;2023-11-19T13:00:22;0.17;;;0.17;;
24729;SDS011;12832;52.392;13.066;2023-11-19T13:02:53;0.20;;;0.20;;
24729;SDS011;12832;52.392;13.066;2023-11-19T13:05:23;0.30;;;0.30;;
24729;SDS011;12832;52.392;13.066;2023-11-19T13:08:05;0.20;;;0.20;;
24729;SDS011;12832;52.392;13.066;2023-11-19T13:10:32;0.32;;;0.22;;
24729;SDS011;12832;52.392;13.066;2023-11-19T13:13:02;0.30;;;0.30;;
24729;SDS011;12832;52.392;13.066;2023-11-19T13:15:29;0.40;;;0.20;;
24729;SDS011;12832;52.392;13.066;2023-11-19T13:17:56;0.45;;;0.40;;
24729;SDS011;12832;52.392;13.066;2023-11-19T13:20:23;0.47;;;0.38;;
24729;SDS011;12832;52.392;13.066;2023-11-19T13:22:56;0.40;;;0.40;;
24729;SDS011;12832;52.392;13.066;2023-11-19T13:25:23;0.30;;;0.30;;
24729;SDS011;12832;52.392;13.066;2023-11-19T13:27:49;0.73;;;0.30;;
24729;SDS011;12832;52.392;13.066;2023-11-19T13:30:16;0.20;;;0.20;;
24729;SDS011;12832;52.392;13.066;2023-11-19T13:32:46;0.50;;;0.45;;
24729;SDS011;12832;52.392;13.066;2023-11-19T13:35:13;0.60;;;0.30;;
24729;SDS011;12832;52.392;13.066;2023-11-19T13:37:39;0.40;;;0.40;;
24729;SDS011;12832;52.392;13.066;2023-11-19T13:40:06;0.38;;;0.38;;
24729;SDS011;12832;52.392;13.066;2023-11-19T13:42:36;0.43;;;0.40;;
24729;SDS011;12832;52.392;13.066;2023-11-19T13:45:12;0.50;;;0.50;;
24729;SDS011;12832;52.392;13.066;2023-11-19T13:47:40;0.30;;;0.30;;
24729;SDS011;12832;52.392;13.066;2023-11-19T13:50:08;0.50;;;0.40;;
24729;SDS011;12832;52.392;13.066;2023-11-19T13:52:36;0.30;;;0.30;;
24729;SDS011;12832;52.392;13.066;2023-11-19T13:55:07;0.50;;;0.43;;
24729;SDS011;12832;52.392;13.066;2023-11-19T13:57:43;0.35;;;0.35;;
24729;SDS011;12832;52.392;13.066;2023-11-19T14:00:10;0.63;;;0.38;;
24729;SDS011;12832;52.392;13.066;2023-11-19T14:02:42;0.35;;;0.30;;
24729;SDS011;12832;52.392;13.066;2023-11-19T14:05:09;0.60;;;0.40;;
24729;SDS011;12832;52.392;13.066;2023-11-19T14:07:36;0.22;;;0.20;;
24729;SDS011;12832;52.392;13.066;2023-11-19T14:10:03;0.32;;;0.30;;
24729;SDS011;12832;52.392;13.066;2023-11-19T14:12:31;0.40;;;0.30;;
24729;SDS011;12832;52.392;13.066;2023-11-19T14:14:58;0.60;;;0.52;;
24729;SDS011;12832;52.392;13.066;2023-11-19T14:17:26;0.40;;;0.40;;
24729;SDS011;12832;52.392;13.066;2023-11-19T14:19:52;0.45;;;0.40;;
24729;SDS011;12832;52.392;13.066;2023-11-19T14:22:19;0.43;;;0.40;;
24729;SDS011;12832;52.392;13.066;2023-11-19T14:24:45;0.22;;;0.17;;
24729;SDS011;12832;52.392;13.066;2023-11-19T14:27:12;0.50;;;0.30;;
24729;SDS011;12832;52.392;13.066;2023-11-19T14:29:39;0.65;;;0.40;;
24729;SDS011;12832;52.392;13.066;2023-11-19T14:32:06;0.30;;;0.30;;
24729;SDS011;12832;52.392;13.066;2023-11-19T14:34:33;0.30;;;0.30;;
24729;SDS011;12832;52.392;13.066;2023-11-19T14:36:59;0.80;;;0.55;;
24729;SDS011;12832;52.392;13.066;2023-11-19T14:39:26;0.50;;;0.40;;
24729;SDS011;12832;52.392;13.066;2023-11-19T14:41:53;0.43;;;0.30;;
24729;SDS011;12832;52.392;13.066;2023-11-19T14:44:23;0.30;;;0.30;;
24729;SDS011;12832;52.392;13.066;2023-11-19T14:46:50;0.82;;;0.40;;
24729;SDS011;12832;52.392;13.066;2023-11-19T14:49:16;0.77;;;0.60;;
24729;SDS011;12832;52.392;13.066;2023-11-19T14:51:43;0.98;;;0.38;;
24729;SDS011;12832;52.392;13.066;2023-11-19T14:54:12;0.45;;;0.45;;
24729;SDS011;12832;52.392;13.066;2023-11-19T14:56:41;0.52;;;0.47;;
24729;SDS011;12832;52.392;13.066;2023-11-19T14:59:08;0.65;;;0.50;;